sensor_id;sensor_type;location;lat;lon;timestamp;pressure;altitude;pressure_sealevel;temperature;humidity
80186;BME280;69904;52.122;5.422;2023-07-31T00:01:19;100980.78;;;14.92;91.40
80186;BME280;69904;52.122;5.422;2023-07-31T00:03:46;100988.72;;;14.94;91.43
80186;BME280;69904;52.122;5.422;2023-07-31T00:06:13;100979.53;;;14.95;91.50
80186;BME280;69904;52.122;5.422;2023-07-31T00:08:40;100976.56;;;14.96;91.92
80186;BME280;69904;52.122;5.422;2023-07-31T00:11:06;100969.84;;;14.99;91.73
80186;BME280;69904;52.122;5.422;2023-07-31T00:13:33;100960.56;;;15.06;91.51
80186;BME280;69904;52.122;5.422;2023-07-31T00:16:00;100945.88;;;15.14;91.46
80186;BME280;69904;52.122;5.422;2023-07-31T00:18:26;100940.78;;;15.17;91.58
80186;BME280;69904;52.122;5.422;2023-07-31T00:20:53;100933.25;;;15.20;91.46
80186;BME280;69904;52.122;5.422;2023-07-31T00:23:19;100927.00;;;15.19;91.44
80186;BME280;69904;52.122;5.422;2023-07-31T00:25:46;100935.16;;;15.19;91.55
80186;BME280;69904;52.122;5.422;2023-07-31T00:28:13;100935.97;;;15.20;91.48
80186;BME280;69904;52.122;5.422;2023-07-31T00:30:39;100941.63;;;15.18;91.44
80186;BME280;69904;52.122;5.422;2023-07-31T00:33:06;100935.97;;;15.20;91.61
80186;BME280;69904;52.122;5.422;2023-07-31T00:35:33;100934.72;;;15.22;91.91
80186;BME280;69904;52.122;5.422;2023-07-31T00:37:59;100935.44;;;15.29;91.49
80186;BME280;69904;52.122;5.422;2023-07-31T00:40:26;100930.41;;;15.33;91.78
80186;BME280;69904;52.122;5.422;2023-07-31T00:42:52;100930.31;;;15.39;92.28
80186;BME280;69904;52.122;5.422;2023-07-31T00:45:19;100931.28;;;15.45;92.46
80186;BME280;69904;52.122;5.422;2023-07-31T00:47:49;100923.09;;;15.51;92.44
80186;BME280;69904;52.122;5.422;2023-07-31T00:50:16;100915.44;;;15.60;92.33
80186;BME280;69904;52.122;5.422;2023-07-31T00:52:43;100928.75;;;15.68;92.52
80186;BME280;69904;52.122;5.422;2023-07-31T00:55:10;100918.00;;;15.73;92.96
80186;BME280;69904;52.122;5.422;2023-07-31T00:57:38;100921.69;;;15.79;92.69
80186;BME280;69904;52.122;5.422;2023-07-31T01:00:06;100916.03;;;15.80;93.12
80186;BME280;69904;52.122;5.422;2023-07-31T01:02:35;100912.63;;;15.85;93.46
80186;BME280;69904;52.122;5.422;2023-07-31T01:05:02;100915.69;;;15.88;93.38
80186;BME280;69904;52.122;5.422;2023-07-31T01:10:16;100920.00;;;15.96;93.42
80186;BME280;69904;52.122;5.422;2023-07-31T01:12:45;100914.56;;;15.96;93.11
80186;BME280;69904;52.122;5.422;2023-07-31T01:15:13;100900.69;;;15.97;93.41
80186;BME280;69904;52.122;5.422;2023-07-31T01:17:42;100908.84;;;15.97;93.54
80186;BME280;69904;52.122;5.422;2023-07-31T01:20:16;100921.41;;;15.98;93.07
80186;BME280;69904;52.122;5.422;2023-07-31T01:28:19;100923.69;;;16.02;93.40
80186;BME280;69904;52.122;5.422;2023-07-31T01:30:48;100917.41;;;16.01;93.07
80186;BME280;69904;52.122;5.422;2023-07-31T01:33:16;100908.41;;;16.00;93.14
80186;BME280;69904;52.122;5.422;2023-07-31T01:35:45;100907.34;;;16.02;93.12
80186;BME280;69904;52.122;5.422;2023-07-31T01:38:12;100912.81;;;16.02;93.06
80186;BME280;69904;52.122;5.422;2023-07-31T01:40:41;100918.00;;;16.03;93.47
80186;BME280;69904;52.122;5.422;2023-07-31T01:43:08;100917.19;;;16.03;93.47
80186;BME280;69904;52.122;5.422;2023-07-31T01:45:35;100910.91;;;16.02;92.99
80186;BME280;69904;52.122;5.422;2023-07-31T01:48:02;100913.63;;;16.02;93.34
80186;BME280;69904;52.122;5.422;2023-07-31T01:50:28;100910.06;;;16.02;92.93
80186;BME280;69904;52.122;5.422;2023-07-31T01:52:55;100910.06;;;16.02;93.05
80186;BME280;69904;52.122;5.422;2023-07-31T01:55:22;100900.03;;;16.02;93.01
80186;BME280;69904;52.122;5.422;2023-07-31T01:57:48;100900.03;;;16.02;93.20
80186;BME280;69904;52.122;5.422;2023-07-31T02:00:15;100901.66;;;16.03;93.09
80186;BME280;69904;52.122;5.422;2023-07-31T02:02:42;100896.22;;;16.03;93.16
80186;BME280;69904;52.122;5.422;2023-07-31T02:05:08;100893.75;;;16.02;92.90
80186;BME280;69904;52.122;5.422;2023-07-31T02:07:35;100890.41;;;15.99;92.87
80186;BME280;69904;52.122;5.422;2023-07-31T02:10:02;100896.91;;;15.98;93.29
80186;BME280;69904;52.122;5.422;2023-07-31T02:12:28;100891.72;;;15.97;93.14
80186;BME280;69904;52.122;5.422;2023-07-31T02:14:58;100883.56;;;15.97;92.83
80186;BME280;69904;52.122;5.422;2023-07-31T02:17:25;100881.88;;;15.96;93.02
80186;BME280;69904;52.122;5.422;2023-07-31T02:19:52;100881.28;;;15.94;92.65
80186;BME280;69904;52.122;5.422;2023-07-31T02:22:20;100863.28;;;15.93;92.50
80186;BME280;69904;52.122;5.422;2023-07-31T02:24:46;100867.91;;;15.92;92.42
80186;BME280;69904;52.122;5.422;2023-07-31T02:27:13;100871.09;;;15.89;92.64
80186;BME280;69904;52.122;5.422;2023-07-31T02:29:39;100871.09;;;15.89;92.41
80186;BME280;69904;52.122;5.422;2023-07-31T02:32:06;100862.94;;;15.89;92.65
80186;BME280;69904;52.122;5.422;2023-07-31T02:34:32;100869.19;;;15.90;92.41
80186;BME280;69904;52.122;5.422;2023-07-31T02:36:59;100867.31;;;15.90;92.28
80186;BME280;69904;52.122;5.422;2023-07-31T02:39:26;100859.16;;;15.90;92.17
80186;BME280;69904;52.122;5.422;2023-07-31T02:41:52;100862.94;;;15.89;92.38
80186;BME280;69904;52.122;5.422;2023-07-31T02:44:19;100865.44;;;15.91;92.65
80186;BME280;69904;52.122;5.422;2023-07-31T02:46:46;100865.44;;;15.91;92.52
80186;BME280;69904;52.122;5.422;2023-07-31T02:49:13;100868.16;;;15.91;92.26
80186;BME280;69904;52.122;5.422;2023-07-31T02:51:39;100866.00;;;15.93;92.26
80186;BME280;69904;52.122;5.422;2023-07-31T02:54:06;100855.38;;;15.91;92.20
80186;BME280;69904;52.122;5.422;2023-07-31T02:56:33;100855.38;;;15.91;92.38
80186;BME280;69904;52.122;5.422;2023-07-31T02:58:59;100846.38;;;15.91;92.26
80186;BME280;69904;52.122;5.422;2023-07-31T03:01:26;100848.84;;;15.92;92.43
80186;BME280;69904;52.122;5.422;2023-07-31T03:03:53;100848.00;;;15.92;92.18
80186;BME280;69904;52.122;5.422;2023-07-31T03:06:20;100847.78;;;15.93;92.20
80186;BME280;69904;52.122;5.422;2023-07-31T03:08:46;100841.75;;;15.91;92.31
80186;BME280;69904;52.122;5.422;2023-07-31T03:11:13;100847.19;;;15.91;92.45
80186;BME280;69904;52.122;5.422;2023-07-31T03:13:39;100846.38;;;15.91;91.98
80186;BME280;69904;52.122;5.422;2023-07-31T03:16:06;100850.16;;;15.90;91.94
80186;BME280;69904;52.122;5.422;2023-07-31T03:18:32;100855.59;;;15.90;92.23
80186;BME280;69904;52.122;5.422;2023-07-31T03:20:59;100849.31;;;15.89;92.08
80186;BME280;69904;52.122;5.422;2023-07-31T03:23:26;100839.47;;;15.88;92.05
80186;BME280;69904;52.122;5.422;2023-07-31T03:26:00;100850.38;;;15.88;91.59
80186;BME280;69904;52.122;5.422;2023-07-31T03:28:27;100840.31;;;15.89;91.89
80186;BME280;69904;52.122;5.422;2023-07-31T03:30:53;100837.00;;;15.87;91.51
80186;BME280;69904;52.122;5.422;2023-07-31T03:33:20;100840.53;;;15.87;91.89
80186;BME280;69904;52.122;5.422;2023-07-31T03:35:47;100842.69;;;15.85;91.88
80186;BME280;69904;52.122;5.422;2023-07-31T03:38:13;100840.19;;;15.84;91.90
80186;BME280;69904;52.122;5.422;2023-07-31T03:40:40;100843.97;;;15.83;91.58
80186;BME280;69904;52.122;5.422;2023-07-31T03:43:06;100843.13;;;15.82;91.64
80186;BME280;69904;52.122;5.422;2023-07-31T03:45:33;100842.06;;;15.83;91.46
80186;BME280;69904;52.122;5.422;2023-07-31T03:47:59;100843.13;;;15.82;91.46
80186;BME280;69904;52.122;5.422;2023-07-31T03:50:26;100839.56;;;15.82;91.23
80186;BME280;69904;52.122;5.422;2023-07-31T03:52:53;100837.69;;;15.82;91.43
80186;BME280;69904;52.122;5.422;2023-07-31T03:55:19;100837.94;;;15.81;90.83
80186;BME280;69904;52.122;5.422;2023-07-31T03:57:46;100835.22;;;15.81;90.71
80186;BME280;69904;52.122;5.422;2023-07-31T04:00:13;100832.50;;;15.81;90.74
80186;BME280;69904;52.122;5.422;2023-07-31T04:02:39;100828.09;;;15.80;90.72
80186;BME280;69904;52.122;5.422;2023-07-31T04:05:07;100832.72;;;15.79;90.92
80186;BME280;69904;52.122;5.422;2023-07-31T04:07:34;100827.50;;;15.78;90.77
80186;BME280;69904;52.122;5.422;2023-07-31T04:10:00;100826.66;;;15.77;90.51
80186;BME280;69904;52.122;5.422;2023-07-31T04:12:27;100816.84;;;15.76;90.42
80186;BME280;69904;52.122;5.422;2023-07-31T04:14:53;100820.03;;;15.73;90.50
80186;BME280;69904;52.122;5.422;2023-07-31T04:17:20;100816.13;;;15.69;90.77
80186;BME280;69904;52.122;5.422;2023-07-31T04:19:46;100801.91;;;15.67;90.67
80186;BME280;69904;52.122;5.422;2023-07-31T04:22:13;100807.56;;;15.66;90.27
80186;BME280;69904;52.122;5.422;2023-07-31T04:24:39;100800.25;;;15.66;90.42
80186;BME280;69904;52.122;5.422;2023-07-31T04:27:06;100798.38;;;15.67;90.14
80186;BME280;69904;52.122;5.422;2023-07-31T04:29:32;100792.09;;;15.66;90.01
80186;BME280;69904;52.122;5.422;2023-07-31T04:31:59;100801.91;;;15.67;90.12
80186;BME280;69904;52.122;5.422;2023-07-31T04:34:25;100797.31;;;15.68;89.78
80186;BME280;69904;52.122;5.422;2023-07-31T04:36:51;100793.53;;;15.69;89.85
80186;BME280;69904;52.122;5.422;2023-07-31T04:39:18;100808.19;;;15.68;89.89
80186;BME280;69904;52.122;5.422;2023-07-31T04:41:44;100811.53;;;15.70;89.86
80186;BME280;69904;52.122;5.422;2023-07-31T04:44:11;100803.81;;;15.67;90.04
80186;BME280;69904;52.122;5.422;2023-07-31T04:46:37;100798.44;;;15.60;90.41
80186;BME280;69904;52.122;5.422;2023-07-31T04:49:04;100797.88;;;15.58;90.58
80186;BME280;69904;52.122;5.422;2023-07-31T04:51:31;100801.44;;;15.58;90.33
80186;BME280;69904;52.122;5.422;2023-07-31T04:53:57;100796.81;;;15.59;90.38
80186;BME280;69904;52.122;5.422;2023-07-31T04:56:24;100790.75;;;15.57;90.48
80186;BME280;69904;52.122;5.422;2023-07-31T04:58:50;100788.03;;;15.57;91.17
80186;BME280;69904;52.122;5.422;2023-07-31T05:01:17;100784.13;;;15.53;91.02
80186;BME280;69904;52.122;5.422;2023-07-31T05:03:43;100778.69;;;15.53;91.36
80186;BME280;69904;52.122;5.422;2023-07-31T05:06:10;100775.56;;;15.49;91.43
80186;BME280;69904;52.122;5.422;2023-07-31T05:08:36;100777.69;;;15.47;91.51
80186;BME280;69904;52.122;5.422;2023-07-31T05:11:03;100769.75;;;15.46;91.94
80186;BME280;69904;52.122;5.422;2023-07-31T05:13:29;100777.91;;;15.46;92.23
80186;BME280;69904;52.122;5.422;2023-07-31T05:15:56;100770.81;;;15.45;92.45
80186;BME280;69904;52.122;5.422;2023-07-31T05:18:22;100771.88;;;15.44;91.98
80186;BME280;69904;52.122;5.422;2023-07-31T05:20:49;100767.88;;;15.46;92.40
80186;BME280;69904;52.122;5.422;2023-07-31T05:23:15;100771.66;;;15.45;92.09
80186;BME280;69904;52.122;5.422;2023-07-31T05:25:42;100771.88;;;15.44;92.14
80186;BME280;69904;52.122;5.422;2023-07-31T05:28:08;100769.97;;;15.44;92.40
80186;BME280;69904;52.122;5.422;2023-07-31T05:30:35;100765.00;;;15.41;92.51
80186;BME280;69904;52.122;5.422;2023-07-31T05:33:02;100765.25;;;15.40;92.31
80186;BME280;69904;52.122;5.422;2023-07-31T05:35:28;100763.56;;;15.39;92.32
80186;BME280;69904;52.122;5.422;2023-07-31T05:37:55;100768.22;;;15.38;92.49
80186;BME280;69904;52.122;5.422;2023-07-31T05:40:22;100745.63;;;15.38;92.21
80186;BME280;69904;52.122;5.422;2023-07-31T05:42:48;100754.00;;;15.36;92.16
80186;BME280;69904;52.122;5.422;2023-07-31T05:45:15;100760.50;;;15.35;92.39
80186;BME280;69904;52.122;5.422;2023-07-31T05:47:42;100741.69;;;15.34;92.35
80186;BME280;69904;52.122;5.422;2023-07-31T05:50:09;100744.41;;;15.34;92.71
80186;BME280;69904;52.122;5.422;2023-07-31T05:52:35;100737.06;;;15.34;92.85
80186;BME280;69904;52.122;5.422;2023-07-31T05:55:02;100738.75;;;15.35;92.89
80186;BME280;69904;52.122;5.422;2023-07-31T05:57:29;100736.03;;;15.35;92.56
80186;BME280;69904;52.122;5.422;2023-07-31T05:59:56;100726.81;;;15.36;92.89
80186;BME280;69904;52.122;5.422;2023-07-31T06:02:22;100730.59;;;15.35;92.58
80186;BME280;69904;52.122;5.422;2023-07-31T06:04:49;100729.53;;;15.36;93.08
80186;BME280;69904;52.122;5.422;2023-07-31T06:07:16;100723.47;;;15.34;93.06
80186;BME280;69904;52.122;5.422;2023-07-31T06:09:43;100726.19;;;15.34;92.93
80186;BME280;69904;52.122;5.422;2023-07-31T06:12:09;100724.53;;;15.33;93.20
80186;BME280;69904;52.122;5.422;2023-07-31T06:14:36;100720.75;;;15.34;93.11
80186;BME280;69904;52.122;5.422;2023-07-31T06:17:02;100718.66;;;15.36;93.17
80186;BME280;69904;52.122;5.422;2023-07-31T06:19:29;100718.03;;;15.34;93.12
80186;BME280;69904;52.122;5.422;2023-07-31T06:21:56;100716.16;;;15.35;93.04
80186;BME280;69904;52.122;5.422;2023-07-31T06:24:22;100706.94;;;15.36;93.15
80186;BME280;69904;52.122;5.422;2023-07-31T06:26:49;100717.59;;;15.37;93.34
80186;BME280;69904;52.122;5.422;2023-07-31T06:29:17;100718.19;;;15.39;93.29
80186;BME280;69904;52.122;5.422;2023-07-31T06:31:43;100713.56;;;15.40;92.96
80186;BME280;69904;52.122;5.422;2023-07-31T06:34:10;100698.09;;;15.40;93.17
80186;BME280;69904;52.122;5.422;2023-07-31T06:36:37;100704.97;;;15.43;93.44
80186;BME280;69904;52.122;5.422;2023-07-31T06:39:04;100693.81;;;15.44;93.15
80186;BME280;69904;52.122;5.422;2023-07-31T06:41:30;100690.66;;;15.47;93.04
80186;BME280;69904;52.122;5.422;2023-07-31T06:43:57;100684.16;;;15.48;93.44
80186;BME280;69904;52.122;5.422;2023-07-31T06:46:24;100683.91;;;15.50;93.38
80186;BME280;69904;52.122;5.422;2023-07-31T06:48:50;100683.50;;;15.53;93.57
80186;BME280;69904;52.122;5.422;2023-07-31T06:51:17;100684.06;;;15.55;93.55
80186;BME280;69904;52.122;5.422;2023-07-31T06:53:43;100686.56;;;15.56;93.41
80186;BME280;69904;52.122;5.422;2023-07-31T06:56:11;100678.63;;;15.55;93.66
80186;BME280;69904;52.122;5.422;2023-07-31T06:58:38;100677.34;;;15.57;93.58
80186;BME280;69904;52.122;5.422;2023-07-31T07:01:05;100676.03;;;15.60;93.41
80186;BME280;69904;52.122;5.422;2023-07-31T07:03:32;100669.31;;;15.63;93.71
80186;BME280;69904;52.122;5.422;2023-07-31T07:05:58;100675.94;;;15.67;93.64
80186;BME280;69904;52.122;5.422;2023-07-31T07:08:25;100663.97;;;15.68;93.93
80186;BME280;69904;52.122;5.422;2023-07-31T07:10:53;100664.59;;;15.70;93.60
80186;BME280;69904;52.122;5.422;2023-07-31T07:13:21;100667.88;;;15.72;93.46
80186;BME280;69904;52.122;5.422;2023-07-31T07:15:49;100662.00;;;15.75;93.65
80186;BME280;69904;52.122;5.422;2023-07-31T07:18:16;100665.28;;;15.77;93.43
80186;BME280;69904;52.122;5.422;2023-07-31T07:20:52;100665.88;;;15.79;93.79
80186;BME280;69904;52.122;5.422;2023-07-31T07:23:19;100662.94;;;15.80;93.52
80186;BME280;69904;52.122;5.422;2023-07-31T07:25:47;100672.50;;;15.83;93.63
80186;BME280;69904;52.122;5.422;2023-07-31T07:28:14;100661.41;;;15.84;93.83
80186;BME280;69904;52.122;5.422;2023-07-31T07:30:40;100663.06;;;15.85;93.80
80186;BME280;69904;52.122;5.422;2023-07-31T07:33:07;100672.41;;;15.89;93.72
80186;BME280;69904;52.122;5.422;2023-07-31T07:35:34;100664.22;;;15.89;94.12
80186;BME280;69904;52.122;5.422;2023-07-31T07:38:02;100664.00;;;15.91;94.07
80186;BME280;69904;52.122;5.422;2023-07-31T07:40:29;100658.31;;;15.92;93.84
80186;BME280;69904;52.122;5.422;2023-07-31T07:42:56;100667.28;;;15.93;94.07
80186;BME280;69904;52.122;5.422;2023-07-31T07:45:22;100659.13;;;15.93;94.31
80186;BME280;69904;52.122;5.422;2023-07-31T07:47:49;100658.91;;;15.94;94.03
80186;BME280;69904;52.122;5.422;2023-07-31T07:50:16;100648.63;;;15.96;94.43
80186;BME280;69904;52.122;5.422;2023-07-31T07:52:42;100654.06;;;15.96;94.32
80186;BME280;69904;52.122;5.422;2023-07-31T07:55:09;100654.63;;;15.98;94.18
80186;BME280;69904;52.122;5.422;2023-07-31T07:57:36;100658.31;;;16.04;94.17
80186;BME280;69904;52.122;5.422;2023-07-31T08:00:02;100645.84;;;16.08;94.33
80186;BME280;69904;52.122;5.422;2023-07-31T08:02:29;100646.22;;;16.12;94.06
80186;BME280;69904;52.122;5.422;2023-07-31T08:04:56;100645.19;;;16.13;94.37
80186;BME280;69904;52.122;5.422;2023-07-31T08:07:22;100647.91;;;16.13;94.11
80186;BME280;69904;52.122;5.422;2023-07-31T08:09:49;100652.03;;;16.15;94.01
80186;BME280;69904;52.122;5.422;2023-07-31T08:12:15;100644.69;;;16.16;94.04
80186;BME280;69904;52.122;5.422;2023-07-31T08:14:42;100635.22;;;16.18;94.33
80186;BME280;69904;52.122;5.422;2023-07-31T08:17:08;100629.50;;;16.20;94.31
80186;BME280;69904;52.122;5.422;2023-07-31T08:19:35;100636.16;;;16.24;94.38
80186;BME280;69904;52.122;5.422;2023-07-31T08:22:02;100638.63;;;16.25;94.13
80186;BME280;69904;52.122;5.422;2023-07-31T08:24:28;100643.59;;;16.28;93.87
80186;BME280;69904;52.122;5.422;2023-07-31T08:26:55;100630.66;;;16.35;93.92
80186;BME280;69904;52.122;5.422;2023-07-31T08:29:21;100631.50;;;16.36;93.71
80186;BME280;69904;52.122;5.422;2023-07-31T08:31:48;100622.03;;;16.38;93.53
80186;BME280;69904;52.122;5.422;2023-07-31T08:34:14;100619.03;;;16.40;93.47
80186;BME280;69904;52.122;5.422;2023-07-31T08:36:41;100624.25;;;16.41;93.76
80186;BME280;69904;52.122;5.422;2023-07-31T08:39:08;100616.44;;;16.45;93.52
80186;BME280;69904;52.122;5.422;2023-07-31T08:41:38;100621.16;;;16.50;93.35
80186;BME280;69904;52.122;5.422;2023-07-31T08:44:07;100622.34;;;16.54;93.27
80186;BME280;69904;52.122;5.422;2023-07-31T08:46:34;100624.56;;;16.57;93.31
80186;BME280;69904;52.122;5.422;2023-07-31T08:49:04;100613.66;;;16.57;93.04
80186;BME280;69904;52.122;5.422;2023-07-31T08:51:34;100644.47;;;16.57;93.38
80186;BME280;69904;52.122;5.422;2023-07-31T08:54:01;100621.97;;;16.62;93.53
80186;BME280;69904;52.122;5.422;2023-07-31T08:56:32;100623.16;;;16.66;93.11
80186;BME280;69904;52.122;5.422;2023-07-31T08:59:02;100619.59;;;16.65;93.30
80186;BME280;69904;52.122;5.422;2023-07-31T09:01:30;100625.88;;;16.66;93.17
80186;BME280;69904;52.122;5.422;2023-07-31T09:03:59;100623.50;;;16.69;93.40
80186;BME280;69904;52.122;5.422;2023-07-31T09:06:28;100633.56;;;16.69;93.35
80186;BME280;69904;52.122;5.422;2023-07-31T09:08:56;100620.53;;;16.71;93.48
80186;BME280;69904;52.122;5.422;2023-07-31T09:11:23;100635.56;;;16.73;93.34
80186;BME280;69904;52.122;5.422;2023-07-31T09:13:52;100622.75;;;16.74;93.46
80186;BME280;69904;52.122;5.422;2023-07-31T09:16:18;100619.78;;;16.75;94.02
80186;BME280;69904;52.122;5.422;2023-07-31T09:18:55;100626.63;;;16.78;94.01
80186;BME280;69904;52.122;5.422;2023-07-31T09:21:23;100628.44;;;16.72;93.58
80186;BME280;69904;52.122;5.422;2023-07-31T09:23:50;100612.34;;;16.71;93.71
80186;BME280;69904;52.122;5.422;2023-07-31T09:26:34;100626.22;;;16.69;93.90
80186;BME280;69904;52.122;5.422;2023-07-31T09:29:04;100612.81;;;16.68;93.89
80186;BME280;69904;52.122;5.422;2023-07-31T09:31:32;100604.66;;;16.68;93.88
80186;BME280;69904;52.122;5.422;2023-07-31T09:33:59;100607.97;;;16.70;94.10
80186;BME280;69904;52.122;5.422;2023-07-31T09:36:29;100609.13;;;16.74;94.11
80186;BME280;69904;52.122;5.422;2023-07-31T09:39:02;100607.00;;;16.76;93.84
80186;BME280;69904;52.122;5.422;2023-07-31T09:41:30;100613.84;;;16.78;93.75
80186;BME280;69904;52.122;5.422;2023-07-31T09:43:57;100605.28;;;16.87;93.99
80186;BME280;69904;52.122;5.422;2023-07-31T09:46:27;100610.00;;;16.91;94.03
80186;BME280;69904;52.122;5.422;2023-07-31T09:51:32;100599.03;;;17.03;93.82
80186;BME280;69904;52.122;5.422;2023-07-31T09:53:58;100598.78;;;17.04;93.58
80186;BME280;69904;52.122;5.422;2023-07-31T09:56:26;100607.78;;;17.05;93.60
80186;BME280;69904;52.122;5.422;2023-07-31T09:58:54;100606.88;;;16.99;93.53
80186;BME280;69904;52.122;5.422;2023-07-31T10:01:20;100591.59;;;16.98;93.64
80186;BME280;69904;52.122;5.422;2023-07-31T10:03:47;100601.69;;;16.98;93.22
80186;BME280;69904;52.122;5.422;2023-07-31T10:06:15;100595.25;;;17.04;93.62
80186;BME280;69904;52.122;5.422;2023-07-31T10:08:47;100599.78;;;17.15;93.51
80186;BME280;69904;52.122;5.422;2023-07-31T10:11:16;100596.56;;;17.18;93.37
80186;BME280;69904;52.122;5.422;2023-07-31T10:13:43;100591.88;;;17.13;93.44
80186;BME280;69904;52.122;5.422;2023-07-31T10:16:10;100598.38;;;17.12;93.06
80186;BME280;69904;52.122;5.422;2023-07-31T10:18:38;100598.38;;;17.12;93.03
80186;BME280;69904;52.122;5.422;2023-07-31T10:21:06;100602.41;;;17.10;93.06
80186;BME280;69904;52.122;5.422;2023-07-31T10:23:32;100598.63;;;17.11;93.08
80186;BME280;69904;52.122;5.422;2023-07-31T10:26:00;100607.63;;;17.11;93.43
80186;BME280;69904;52.122;5.422;2023-07-31T10:28:29;100604.91;;;17.11;93.28
80186;BME280;69904;52.122;5.422;2023-07-31T10:30:55;100601.34;;;17.11;93.54
80186;BME280;69904;52.122;5.422;2023-07-31T10:33:22;100596.41;;;17.08;93.11
80186;BME280;69904;52.122;5.422;2023-07-31T10:35:49;100612.53;;;17.09;93.19
80186;BME280;69904;52.122;5.422;2023-07-31T10:38:15;100608.47;;;17.12;93.13
80186;BME280;69904;52.122;5.422;2023-07-31T10:40:42;100591.94;;;17.18;93.41
80186;BME280;69904;52.122;5.422;2023-07-31T10:43:08;100592.03;;;17.23;93.11
80186;BME280;69904;52.122;5.422;2023-07-31T10:45:38;100583.84;;;17.23;93.14
80186;BME280;69904;52.122;5.422;2023-07-31T10:48:17;100591.78;;;17.25;92.90
80186;BME280;69904;52.122;5.422;2023-07-31T10:50:48;100593.50;;;17.31;92.97
80186;BME280;69904;52.122;5.422;2023-07-31T10:53:32;100596.66;;;17.40;93.27
80186;BME280;69904;52.122;5.422;2023-07-31T10:56:03;100602.44;;;17.43;93.12
80186;BME280;69904;52.122;5.422;2023-07-31T10:58:31;100597.34;;;17.47;92.96
80186;BME280;69904;52.122;5.422;2023-07-31T11:01:03;100597.22;;;17.42;92.63
80186;BME280;69904;52.122;5.422;2023-07-31T11:03:46;100593.44;;;17.43;92.65
80186;BME280;69904;52.122;5.422;2023-07-31T11:06:14;100592.13;;;17.45;92.53
80186;BME280;69904;52.122;5.422;2023-07-31T11:08:45;100598.47;;;17.51;92.76
80186;BME280;69904;52.122;5.422;2023-07-31T11:11:14;100601.53;;;17.54;92.74
80186;BME280;69904;52.122;5.422;2023-07-31T11:13:42;100595.00;;;17.55;92.78
80186;BME280;69904;52.122;5.422;2023-07-31T11:16:09;100598.56;;;17.56;92.44
80186;BME280;69904;52.122;5.422;2023-07-31T11:18:39;100600.47;;;17.55;92.99
80186;BME280;69904;52.122;5.422;2023-07-31T11:21:05;100598.22;;;17.52;92.88
80186;BME280;69904;52.122;5.422;2023-07-31T11:23:32;100592.19;;;17.50;92.79
80186;BME280;69904;52.122;5.422;2023-07-31T11:26:00;100598.72;;;17.49;92.93
80186;BME280;69904;52.122;5.422;2023-07-31T11:28:31;100593.84;;;17.51;92.89
80186;BME280;69904;52.122;5.422;2023-07-31T11:30:59;100588.88;;;17.48;92.85
80186;BME280;69904;52.122;5.422;2023-07-31T11:33:25;100585.91;;;17.50;92.80
80186;BME280;69904;52.122;5.422;2023-07-31T11:35:52;100573.41;;;17.54;93.21
80186;BME280;69904;52.122;5.422;2023-07-31T11:38:29;100586.22;;;17.53;93.26
80186;BME280;69904;52.122;5.422;2023-07-31T11:41:01;100585.31;;;17.48;92.94
80186;BME280;69904;52.122;5.422;2023-07-31T11:43:31;100584.19;;;17.44;93.16
80186;BME280;69904;52.122;5.422;2023-07-31T11:46:00;100595.69;;;17.46;93.63
80186;BME280;69904;52.122;5.422;2023-07-31T11:48:31;100585.25;;;17.43;93.22
80186;BME280;69904;52.122;5.422;2023-07-31T11:51:02;100581.13;;;17.40;93.26
80186;BME280;69904;52.122;5.422;2023-07-31T11:53:42;100586.59;;;17.40;93.22
80186;BME280;69904;52.122;5.422;2023-07-31T11:56:10;100587.66;;;17.39;93.38
80186;BME280;69904;52.122;5.422;2023-07-31T11:58:38;100581.59;;;17.37;92.86
80186;BME280;69904;52.122;5.422;2023-07-31T12:01:05;100566.06;;;17.38;92.84
80186;BME280;69904;52.122;5.422;2023-07-31T12:03:33;100581.38;;;17.39;92.88
80186;BME280;69904;52.122;5.422;2023-07-31T12:06:00;100585.75;;;17.40;92.98
80186;BME280;69904;52.122;5.422;2023-07-31T12:08:27;100572.66;;;17.42;92.76
80186;BME280;69904;52.122;5.422;2023-07-31T12:10:54;100591.28;;;17.45;92.73
80186;BME280;69904;52.122;5.422;2023-07-31T12:13:27;100585.66;;;17.51;92.68
80186;BME280;69904;52.122;5.422;2023-07-31T12:15:56;100589.88;;;17.59;92.68
80186;BME280;69904;52.122;5.422;2023-07-31T12:18:25;100584.28;;;17.65;92.90
80186;BME280;69904;52.122;5.422;2023-07-31T12:20:57;100587.59;;;17.67;92.69
80186;BME280;69904;52.122;5.422;2023-07-31T12:23:26;100592.22;;;17.67;92.67
80186;BME280;69904;52.122;5.422;2023-07-31T12:26:03;100584.84;;;17.67;92.58
80186;BME280;69904;52.122;5.422;2023-07-31T12:28:30;100573.94;;;17.67;92.47
80186;BME280;69904;52.122;5.422;2023-07-31T12:31:01;100570.94;;;17.69;92.40
80186;BME280;69904;52.122;5.422;2023-07-31T12:33:32;100568.78;;;17.71;92.50
80186;BME280;69904;52.122;5.422;2023-07-31T12:36:01;100561.44;;;17.72;92.65
80186;BME280;69904;52.122;5.422;2023-07-31T12:38:28;100550.75;;;17.70;92.70
80186;BME280;69904;52.122;5.422;2023-07-31T12:40:55;100547.47;;;17.68;92.66
80186;BME280;69904;52.122;5.422;2023-07-31T12:43:21;100545.28;;;17.70;92.70
80186;BME280;69904;52.122;5.422;2023-07-31T12:45:48;100552.66;;;17.70;92.51
80186;BME280;69904;52.122;5.422;2023-07-31T12:48:15;100549.44;;;17.73;92.54
80186;BME280;69904;52.122;5.422;2023-07-31T12:50:41;100551.34;;;17.72;92.51
80186;BME280;69904;52.122;5.422;2023-07-31T12:53:08;100551.28;;;17.67;92.19
80186;BME280;69904;52.122;5.422;2023-07-31T12:55:34;100554.00;;;17.67;91.98
80186;BME280;69904;52.122;5.422;2023-07-31T12:58:03;100543.41;;;17.71;92.19
80186;BME280;69904;52.122;5.422;2023-07-31T13:00:30;100531.41;;;17.72;91.88
80186;BME280;69904;52.122;5.422;2023-07-31T13:02:56;100527.09;;;17.76;92.07